Terminal Aerodrome Forecast
Issued by NWS

Home | Current Version | Previous Version | Text Only | Print | Product List | Glossary Off
Versions: 1 2 3 4 5 6 7 8 9 10 11 12 13 14 15 16 17 18 19 20 21 22 23 24 25 26 27 28

000
FTUS45 KGGW 262300
TAFGDV
TAF
KGDV 262325Z 2700/2724 18009KT P6SM VCTS SCT060CB BKN200
     FM270600 VRB06KT P6SM SCT150
     FM271700 VRB15G25KT 4SM -TSRA SCT060CB BKN150
      AMD LTD TO CLD VIS AND WIND=

USA.gov is the U.S. government's official web portal to all federal, state and local government web resources and services.